createdAt,value
2022-09-28T00:00:33.048Z,100.00
2022-09-28T00:03:19.759Z,100.00
2022-09-28T00:06:09.652Z,100.00
2022-09-28T00:08:57.042Z,100.00
2022-09-28T00:11:43.827Z,100.00
2022-09-28T00:14:32.451Z,100.00
2022-09-28T00:17:22.235Z,100.00
2022-09-28T00:20:09.822Z,100.00
2022-09-28T00:22:57.669Z,100.00
2022-09-28T00:25:44.251Z,100.00
2022-09-28T00:28:31.381Z,100.00
2022-09-28T00:31:19.050Z,100.00
2022-09-28T00:34:05.937Z,100.00
2022-09-28T00:36:52.570Z,100.00
2022-09-28T00:39:41.695Z,100.00
2022-09-28T00:42:28.442Z,100.00
2022-09-28T00:45:15.125Z,100.00
2022-09-28T00:48:01.983Z,100.00
2022-09-28T00:50:48.534Z,100.00
2022-09-28T00:53:36.791Z,100.00
2022-09-28T00:56:26.634Z,100.00
2022-09-28T00:59:13.862Z,100.00
2022-09-28T01:02:00.368Z,100.00
2022-09-28T01:04:47.552Z,100.00
2022-09-28T01:07:34.856Z,100.00
2022-09-28T01:10:21.467Z,100.00
2022-09-28T01:13:09.978Z,100.00
2022-09-28T01:16:01.129Z,100.00
2022-09-28T01:18:55.406Z,100.00
2022-09-28T01:21:51.115Z,100.00
2022-09-28T01:24:41.893Z,100.00
2022-09-28T01:27:31.118Z,100.00
2022-09-28T01:30:18.593Z,100.00
2022-09-28T01:33:08.254Z,100.00
2022-09-28T01:35:56.969Z,100.00
2022-09-28T01:38:47.610Z,100.00
2022-09-28T01:41:36.767Z,100.00
2022-09-28T01:44:27.288Z,100.00
2022-09-28T01:47:15.969Z,100.00
2022-09-28T01:50:06.343Z,100.00
2022-09-28T01:52:56.552Z,100.00
2022-09-28T01:55:46.357Z,100.00
2022-09-28T01:58:37.538Z,100.00
2022-09-28T02:01:30.522Z,100.00
2022-09-28T02:04:19.423Z,100.00
2022-09-28T02:07:09.585Z,100.00
2022-09-28T02:09:59.442Z,100.00
2022-09-28T02:12:48.472Z,100.00
2022-09-28T02:15:38.842Z,100.00
2022-09-28T02:18:26.973Z,100.00
2022-09-28T02:21:18.527Z,100.00
2022-09-28T02:24:08.757Z,100.00
2022-09-28T02:26:56.978Z,100.00
2022-09-28T02:29:43.377Z,100.00
2022-09-28T02:32:31.163Z,100.00
2022-09-28T02:35:20.492Z,100.00
2022-09-28T02:38:06.729Z,100.00
2022-09-28T02:41:02.045Z,100.00
2022-09-28T02:43:56.936Z,100.00
2022-09-28T02:46:49.450Z,100.00
2022-09-28T02:49:39.390Z,100.00
2022-09-28T02:52:39.850Z,100.00
2022-09-28T02:55:34.951Z,100.00
2022-09-28T02:58:30.231Z,100.00
2022-09-28T03:01:22.037Z,100.00
2022-09-28T03:04:13.801Z,100.00
2022-09-28T03:07:03.113Z,100.00
2022-09-28T03:09:55.761Z,100.00
2022-09-28T03:12:42.940Z,100.00
2022-09-28T03:15:31.095Z,100.00
2022-09-28T03:18:17.970Z,100.00
2022-09-28T03:21:05.535Z,100.00
2022-09-28T03:23:51.890Z,100.00
2022-09-28T03:26:39.781Z,100.00
2022-09-28T03:29:26.687Z,100.00
2022-09-28T03:32:13.160Z,100.00
2022-09-28T03:34:59.673Z,100.00
2022-09-28T03:37:45.954Z,100.00
2022-09-28T03:40:32.378Z,100.00
2022-09-28T03:43:20.588Z,100.00
2022-09-28T03:46:07.482Z,100.00
2022-09-28T03:48:53.922Z,100.00
2022-09-28T03:51:40.361Z,100.00
2022-09-28T03:54:27.160Z,100.00
2022-09-28T03:57:13.514Z,100.00
2022-09-28T04:00:01.351Z,100.00
2022-09-28T04:02:48.089Z,100.00
2022-09-28T04:05:34.428Z,100.00
2022-09-28T04:08:21.028Z,100.00
2022-09-28T04:11:07.932Z,100.00
2022-09-28T04:13:54.452Z,100.00
2022-09-28T04:16:42.159Z,100.00
2022-09-28T04:19:29.038Z,100.00
2022-09-28T04:22:15.412Z,100.00
2022-09-28T04:25:01.939Z,100.00
2022-09-28T04:28:05.608Z,100.00
2022-09-28T04:30:52.177Z,100.00
2022-09-28T04:33:39.873Z,100.00
2022-09-28T04:36:26.323Z,100.00
2022-09-28T04:39:12.813Z,100.00
2022-09-28T04:41:59.936Z,100.00
2022-09-28T04:44:46.655Z,100.00
2022-09-28T04:47:33.169Z,100.00
2022-09-28T04:50:20.851Z,100.00
2022-09-28T04:53:07.134Z,100.00
2022-09-28T04:55:58.462Z,100.00
2022-09-28T04:58:47.928Z,100.00
2022-09-28T05:01:38.398Z,100.00
2022-09-28T05:04:26.162Z,100.00
2022-09-28T05:07:14.208Z,100.00
2022-09-28T05:10:01.600Z,100.00
2022-09-28T05:12:47.784Z,100.00
2022-09-28T05:15:35.383Z,100.00
2022-09-28T05:18:22.567Z,100.00
2022-09-28T05:21:12.816Z,100.00
2022-09-28T05:24:00.832Z,100.00
2022-09-28T05:26:47.110Z,100.00
2022-09-28T05:29:33.604Z,100.00
2022-09-28T05:32:20.411Z,100.00
2022-09-28T05:35:08.058Z,100.00
2022-09-28T05:37:55.404Z,100.00
2022-09-28T05:40:43.205Z,100.00
2022-09-28T05:43:29.862Z,100.00
2022-09-28T05:46:16.182Z,100.00
2022-09-28T05:49:03.274Z,100.00
2022-09-28T05:51:49.940Z,100.00
2022-09-28T05:54:36.418Z,100.00
2022-09-28T05:57:24.254Z,100.00
2022-09-28T06:00:11.648Z,100.00
2022-09-28T06:03:00.106Z,100.00
2022-09-28T06:05:47.448Z,100.00
2022-09-28T06:08:34.171Z,100.00
2022-09-28T06:11:20.804Z,100.00
2022-09-28T06:14:08.437Z,100.00
2022-09-28T06:16:54.773Z,100.00
2022-09-28T06:19:41.473Z,100.00
2022-09-28T06:22:27.821Z,100.00
2022-09-28T06:25:14.225Z,100.00
2022-09-28T06:28:02.196Z,100.00
2022-09-28T06:30:50.271Z,100.00
2022-09-28T06:33:38.746Z,100.00
2022-09-28T06:36:25.507Z,100.00
2022-09-28T06:39:12.427Z,100.00
2022-09-28T06:41:58.902Z,100.00
2022-09-28T06:44:47.486Z,100.00
2022-09-28T06:47:35.407Z,100.00
2022-09-28T06:50:21.839Z,100.00
2022-09-28T06:53:09.887Z,100.00
2022-09-28T06:55:57.543Z,100.00
2022-09-28T06:58:43.993Z,100.00
2022-09-28T07:01:30.587Z,100.00
2022-09-28T07:04:18.926Z,100.00
2022-09-28T07:07:06.168Z,100.00
2022-09-28T07:09:55.502Z,100.00
2022-09-28T07:12:42.559Z,100.00
2022-09-28T07:15:29.505Z,100.00
2022-09-28T07:18:16.905Z,100.00
2022-09-28T07:21:08.698Z,100.00
2022-09-28T07:23:56.675Z,100.00
2022-09-28T07:26:45.466Z,100.00
2022-09-28T07:29:31.949Z,100.00
2022-09-28T07:32:18.236Z,100.00
2022-09-28T07:35:08.089Z,100.00
2022-09-28T07:38:01.552Z,100.00
2022-09-28T07:41:05.987Z,100.00
2022-09-28T07:43:52.869Z,100.00
2022-09-28T07:46:39.414Z,100.00
2022-09-28T07:49:25.888Z,97.97
2022-09-28T07:52:13.051Z,98.69
2022-09-28T07:55:06.587Z,97.38
2022-09-28T07:57:56.322Z,96.61
2022-09-28T08:00:43.228Z,96.32
2022-09-28T08:03:31.990Z,96.02
2022-09-28T08:06:20.413Z,95.55
2022-09-28T08:09:06.971Z,95.17
2022-09-28T08:11:54.886Z,95.78
2022-09-28T08:14:41.472Z,94.59
2022-09-28T08:17:28.347Z,94.53
2022-09-28T08:20:32.728Z,93.04
2022-09-28T08:23:20.362Z,93.19
2022-09-28T08:26:10.069Z,91.05
2022-09-28T08:29:00.353Z,88.59
2022-09-28T08:31:49.204Z,87.08
2022-09-28T08:34:36.640Z,85.62
2022-09-28T08:37:23.310Z,82.17
2022-09-28T08:40:14.810Z,80.98
2022-09-28T08:43:05.881Z,80.91
2022-09-28T08:45:54.038Z,81.11
2022-09-28T08:49:13.435Z,79.86
2022-09-28T08:52:02.094Z,80.43
2022-09-28T08:54:51.796Z,77.94
2022-09-28T08:57:45.117Z,77.37
2022-09-28T09:00:35.310Z,76.41
2022-09-28T09:03:24.550Z,70.32
2022-09-28T09:06:20.492Z,67.68
2022-09-28T09:09:11.982Z,70.72
2022-09-28T09:12:04.607Z,72.65
2022-09-28T09:15:20.990Z,70.54
2022-09-28T09:18:20.041Z,70.21
2022-09-28T09:21:12.007Z,69.80
2022-09-28T09:24:04.803Z,68.22
2022-09-28T09:26:53.649Z,69.29
2022-09-28T09:29:54.643Z,66.17
2022-09-28T09:32:59.810Z,64.19
2022-09-28T09:35:55.705Z,61.37
2022-09-28T09:38:58.140Z,62.08
2022-09-28T09:41:56.286Z,61.42
2022-09-28T09:44:55.068Z,59.75
2022-09-28T09:47:44.572Z,58.76
2022-09-28T09:50:34.867Z,59.12
2022-09-28T09:53:28.861Z,59.39
2022-09-28T09:56:21.177Z,54.87
2022-09-28T09:59:09.931Z,55.22
2022-09-28T10:01:57.646Z,52.59
2022-09-28T10:04:46.959Z,52.35
2022-09-28T10:07:43.436Z,52.37
2022-09-28T10:10:31.817Z,51.17
2022-09-28T10:13:19.791Z,52.91
2022-09-28T10:16:06.810Z,55.51
2022-09-28T10:18:53.486Z,56.48
2022-09-28T10:21:41.121Z,56.93
2022-09-28T10:24:31.959Z,58.84
2022-09-28T10:27:20.632Z,59.52
2022-09-28T10:30:16.670Z,58.30
2022-09-28T10:33:02.930Z,60.40
2022-09-28T10:35:49.758Z,60.06
2022-09-28T10:38:36.636Z,60.48
2022-09-28T10:41:23.140Z,61.09
2022-09-28T10:44:15.033Z,60.69
2022-09-28T10:47:05.416Z,60.29
2022-09-28T10:49:53.108Z,54.03
2022-09-28T10:52:41.671Z,54.62
2022-09-28T10:55:30.708Z,54.47
2022-09-28T10:58:27.249Z,52.76
2022-09-28T11:01:15.252Z,52.89
2022-09-28T11:04:05.226Z,54.24
2022-09-28T11:06:52.477Z,50.06
2022-09-28T11:09:45.706Z,45.27
2022-09-28T11:12:39.662Z,43.76
2022-09-28T11:15:29.024Z,45.89
2022-09-28T11:18:28.303Z,46.44
2022-09-28T11:21:18.353Z,48.71
2022-09-28T11:24:08.064Z,45.50
2022-09-28T11:26:57.557Z,49.12
2022-09-28T11:29:46.156Z,47.27
2022-09-28T11:32:42.513Z,51.54
2022-09-28T11:35:34.266Z,47.86
2022-09-28T11:38:33.669Z,48.15
2022-09-28T11:41:38.559Z,49.87
2022-09-28T11:44:37.785Z,52.69
2022-09-28T11:47:47.585Z,52.86
2022-09-28T11:50:44.233Z,53.15
2022-09-28T11:53:37.319Z,55.16
2022-09-28T11:56:33.876Z,58.34
2022-09-28T11:59:25.979Z,57.90
2022-09-28T12:02:16.430Z,59.91
2022-09-28T12:05:19.882Z,60.61
2022-09-28T12:08:10.966Z,61.63
2022-09-28T12:11:01.179Z,60.03
2022-09-28T12:13:49.272Z,61.89
2022-09-28T12:17:04.156Z,62.01
2022-09-28T12:19:49.764Z,61.67
2022-09-28T12:22:39.640Z,63.36
2022-09-28T12:25:27.646Z,62.90
2022-09-28T12:28:20.301Z,64.54
2022-09-28T12:31:14.354Z,59.15
2022-09-28T12:34:01.093Z,58.17
2022-09-28T12:36:57.388Z,57.59
2022-09-28T12:40:01.785Z,53.70
2022-09-28T12:43:29.151Z,54.73
2022-09-28T12:46:39.490Z,56.21
2022-09-28T12:52:50.812Z,51.01
2022-09-28T12:55:48.187Z,55.61
2022-09-28T12:58:52.208Z,55.86
2022-09-28T13:01:51.550Z,58.45
2022-09-28T13:04:47.874Z,59.97
2022-09-28T13:07:22.864Z,61.94
2022-09-28T13:10:01.362Z,62.89
2022-09-28T13:12:40.390Z,62.82
2022-09-28T13:15:38.414Z,60.85
2022-09-28T13:18:11.914Z,59.81
2022-09-28T13:20:47.625Z,57.93
2022-09-28T13:23:20.098Z,56.62
2022-09-28T13:25:53.888Z,54.84
2022-09-28T13:28:27.290Z,57.43
2022-09-28T13:33:33.840Z,59.73
2022-09-28T13:36:03.120Z,60.35
2022-09-28T13:38:47.170Z,62.93
2022-09-28T13:41:21.637Z,63.42
2022-09-28T13:44:02.878Z,65.21
2022-09-28T13:46:39.146Z,66.73
2022-09-28T13:49:12.468Z,67.76
2022-09-28T13:51:51.741Z,68.65
2022-09-28T13:54:41.559Z,68.93
2022-09-28T13:57:19.754Z,69.19
2022-09-28T13:59:55.576Z,69.25
2022-09-28T14:02:32.798Z,70.73
2022-09-28T14:05:03.844Z,72.34
2022-09-28T14:07:58.898Z,73.89
2022-09-28T14:10:52.021Z,73.77
2022-09-28T14:13:55.068Z,73.77
2022-09-28T14:16:27.070Z,74.75
2022-09-28T14:18:59.984Z,75.88
2022-09-28T14:22:03.188Z,77.04
2022-09-28T14:24:51.917Z,77.60
2022-09-28T14:27:33.655Z,80.83
2022-09-28T14:30:18.608Z,80.87
2022-09-28T14:32:54.821Z,80.24
2022-09-28T14:35:31.348Z,80.22
2022-09-28T14:38:19.632Z,83.63
2022-09-28T14:41:12.759Z,82.49
2022-09-28T14:44:05.397Z,83.73
2022-09-28T14:46:43.770Z,84.65
2022-09-28T14:49:49.019Z,85.16
2022-09-28T14:52:21.079Z,85.16
2022-09-28T14:54:54.336Z,88.03
2022-09-28T14:57:25.247Z,89.09
2022-09-28T14:59:54.055Z,89.09
2022-09-28T15:02:25.152Z,90.55
2022-09-28T15:05:00.242Z,89.07
2022-09-28T15:07:36.045Z,89.85
2022-09-28T15:10:07.486Z,90.00
2022-09-28T15:12:36.944Z,90.72
2022-09-28T15:15:21.130Z,89.93
2022-09-28T15:17:52.749Z,90.58
2022-09-28T15:20:24.992Z,91.78
2022-09-28T15:22:57.082Z,91.04
2022-09-28T15:25:28.945Z,91.60
2022-09-28T15:27:58.758Z,90.46
2022-09-28T15:30:29.364Z,90.83
2022-09-28T15:33:18.268Z,91.35
2022-09-28T15:35:49.248Z,91.90
2022-09-28T15:38:22.172Z,91.95
2022-09-28T15:40:57.332Z,91.15
2022-09-28T15:43:29.336Z,90.28
2022-09-28T15:46:02.626Z,91.26
2022-09-28T15:48:35.843Z,92.55
2022-09-28T15:51:11.100Z,93.03
2022-09-28T15:53:48.743Z,93.41
2022-09-28T15:56:17.028Z,94.12
2022-09-28T15:58:45.328Z,95.11
2022-09-28T16:01:36.284Z,95.28
2022-09-28T16:04:40.280Z,96.03
2022-09-28T16:07:27.796Z,95.79
2022-09-28T16:10:08.294Z,95.99
2022-09-28T16:12:49.295Z,96.96
2022-09-28T16:15:25.551Z,96.63
2022-09-28T16:17:56.022Z,96.93
2022-09-28T16:20:30.153Z,96.21
2022-09-28T16:23:05.912Z,96.20
2022-09-28T16:25:39.435Z,97.28
2022-09-28T16:28:09.150Z,97.51
2022-09-28T16:30:37.203Z,97.19
2022-09-28T16:33:06.969Z,97.67
2022-09-28T16:35:51.719Z,96.65
2022-09-28T16:38:20.717Z,96.98
2022-09-28T16:40:53.834Z,96.79
2022-09-28T16:43:26.987Z,96.97
2022-09-28T16:45:58.404Z,97.50
2022-09-28T16:48:27.485Z,97.74
2022-09-28T16:50:55.848Z,96.76
2022-09-28T16:53:41.580Z,96.68
2022-09-28T16:56:11.303Z,97.38
2022-09-28T16:58:39.450Z,97.47
2022-09-28T17:01:08.772Z,98.01
2022-09-28T17:03:37.571Z,98.23
2022-09-28T17:06:11.974Z,98.64
2022-09-28T17:08:40.704Z,98.98
2022-09-28T17:11:18.170Z,98.08
2022-09-28T17:13:50.769Z,98.19
2022-09-28T17:16:36.706Z,98.25
2022-09-28T17:19:20.121Z,98.34
2022-09-28T17:21:48.865Z,97.79
2022-09-28T17:24:17.498Z,98.15
2022-09-28T17:26:49.071Z,98.33
2022-09-28T17:29:17.407Z,98.87
2022-09-28T17:31:46.804Z,99.67
2022-09-28T17:34:16.596Z,99.10
2022-09-28T17:36:45.272Z,98.84
2022-09-28T17:39:14.504Z,99.87
2022-09-28T17:41:42.563Z,100.00
2022-09-28T17:44:15.175Z,100.00
2022-09-28T17:46:46.339Z,100.00
2022-09-28T17:49:14.966Z,100.00
2022-09-28T17:51:43.256Z,100.00
2022-09-28T17:54:13.010Z,100.00
2022-09-28T17:56:42.612Z,100.00
2022-09-28T17:59:15.123Z,100.00
2022-09-28T18:01:44.087Z,100.00
2022-09-28T18:04:33.420Z,100.00
2022-09-28T18:07:01.752Z,100.00
2022-09-28T18:09:29.932Z,100.00
2022-09-28T18:12:01.371Z,100.00
2022-09-28T18:14:30.788Z,100.00
2022-09-28T18:16:58.957Z,100.00
2022-09-28T18:19:31.731Z,100.00
2022-09-28T18:22:01.423Z,100.00
2022-09-28T18:24:30.071Z,100.00
2022-09-28T18:26:58.233Z,100.00
2022-09-28T18:29:28.924Z,100.00
2022-09-28T18:32:00.600Z,100.00
2022-09-28T18:34:28.669Z,100.00
2022-09-28T18:36:56.737Z,100.00
2022-09-28T18:39:26.568Z,100.00
2022-09-28T18:41:54.679Z,100.00
2022-09-28T18:44:22.864Z,100.00
2022-09-28T18:46:51.620Z,100.00
2022-09-28T18:49:21.280Z,100.00
2022-09-28T18:51:49.255Z,100.00
2022-09-28T18:54:17.455Z,100.00
2022-09-28T18:56:45.502Z,100.00
2022-09-28T18:59:14.155Z,100.00
2022-09-28T19:01:43.366Z,100.00
2022-09-28T19:04:12.906Z,100.00
2022-09-28T19:06:44.623Z,100.00
2022-09-28T19:09:13.250Z,100.00
2022-09-28T19:11:41.386Z,100.00
2022-09-28T19:14:11.117Z,100.00
2022-09-28T19:16:39.189Z,100.00
2022-09-28T19:19:07.308Z,100.00
2022-09-28T19:21:35.418Z,100.00
2022-09-28T19:24:05.368Z,100.00
2022-09-28T19:26:34.035Z,100.00
2022-09-28T19:29:02.875Z,100.00
2022-09-28T19:31:31.768Z,100.00
2022-09-28T19:34:00.176Z,100.00
2022-09-28T19:36:29.471Z,100.00
2022-09-28T19:38:58.882Z,100.00
2022-09-28T19:41:44.350Z,100.00
2022-09-28T19:44:15.845Z,100.00
2022-09-28T19:46:43.918Z,100.00
2022-09-28T19:49:13.280Z,100.00
2022-09-28T19:51:51.663Z,100.00
2022-09-28T19:54:35.700Z,100.00
2022-09-28T19:57:09.057Z,100.00
2022-09-28T19:59:37.525Z,100.00
2022-09-28T20:02:05.949Z,100.00
2022-09-28T20:04:34.026Z,100.00
2022-09-28T20:07:02.146Z,100.00
2022-09-28T20:09:30.276Z,100.00
2022-09-28T20:11:58.421Z,100.00
2022-09-28T20:14:32.857Z,100.00
2022-09-28T20:17:04.652Z,100.00
2022-09-28T20:19:32.738Z,100.00
2022-09-28T20:22:02.828Z,100.00
2022-09-28T20:24:31.421Z,100.00
2022-09-28T20:27:01.484Z,100.00
2022-09-28T20:29:33.549Z,100.00
2022-09-28T20:32:03.870Z,100.00
2022-09-28T20:34:33.588Z,100.00
2022-09-28T20:37:01.787Z,100.00
2022-09-28T20:39:29.849Z,100.00
2022-09-28T20:41:57.855Z,100.00
2022-09-28T20:44:25.935Z,100.00
2022-09-28T20:46:56.746Z,100.00
2022-09-28T20:49:24.880Z,100.00
2022-09-28T20:51:52.914Z,100.00
2022-09-28T20:54:22.233Z,100.00
2022-09-28T20:56:50.254Z,100.00
2022-09-28T20:59:18.395Z,100.00
2022-09-28T21:01:46.502Z,100.00
2022-09-28T21:04:15.935Z,100.00
2022-09-28T21:06:44.000Z,100.00
2022-09-28T21:09:13.309Z,100.00
2022-09-28T21:11:41.760Z,100.00
2022-09-28T21:14:10.793Z,100.00
2022-09-28T21:16:39.209Z,100.00
2022-09-28T21:19:07.518Z,100.00
2022-09-28T21:21:36.915Z,100.00
2022-09-28T21:24:05.210Z,100.00
2022-09-28T21:26:33.530Z,100.00
2022-09-28T21:29:02.689Z,100.00
2022-09-28T21:31:33.509Z,100.00
2022-09-28T21:34:01.843Z,100.00
2022-09-28T21:36:29.854Z,100.00
2022-09-28T21:38:59.209Z,100.00
2022-09-28T21:41:28.785Z,100.00
2022-09-28T21:43:56.805Z,100.00
2022-09-28T21:46:24.915Z,100.00
2022-09-28T21:48:54.477Z,100.00
2022-09-28T21:51:22.662Z,100.00
2022-09-28T21:53:50.810Z,100.00
2022-09-28T21:56:20.185Z,100.00
2022-09-28T21:58:48.417Z,100.00
2022-09-28T22:01:18.343Z,100.00
2022-09-28T22:03:48.560Z,100.00
2022-09-28T22:06:17.086Z,100.00
2022-09-28T22:08:45.583Z,100.00
2022-09-28T22:11:14.955Z,100.00
2022-09-28T22:13:46.124Z,100.00
2022-09-28T22:16:15.773Z,100.00
2022-09-28T22:18:43.970Z,100.00
2022-09-28T22:21:15.403Z,100.00
2022-09-28T22:23:43.453Z,100.00
2022-09-28T22:26:13.144Z,100.00
2022-09-28T22:28:45.151Z,100.00
2022-09-28T22:31:14.835Z,100.00
2022-09-28T22:33:43.057Z,100.00
2022-09-28T22:36:11.443Z,100.00
2022-09-28T22:38:40.456Z,100.00
2022-09-28T22:41:08.516Z,100.00
2022-09-28T22:43:36.463Z,100.00
2022-09-28T22:46:06.040Z,100.00
2022-09-28T22:48:35.880Z,100.00
2022-09-28T22:51:05.337Z,100.00
2022-09-28T22:53:33.984Z,100.00
2022-09-28T22:56:04.589Z,100.00
2022-09-28T22:58:32.929Z,100.00
2022-09-28T23:01:06.857Z,100.00
2022-09-28T23:03:36.423Z,100.00
2022-09-28T23:06:04.733Z,100.00
2022-09-28T23:08:33.021Z,100.00
2022-09-28T23:11:01.435Z,100.00
2022-09-28T23:13:31.114Z,100.00
2022-09-28T23:16:00.077Z,100.00
2022-09-28T23:18:28.940Z,100.00
2022-09-28T23:20:59.965Z,100.00
2022-09-28T23:23:28.650Z,100.00
2022-09-28T23:25:56.962Z,100.00
2022-09-28T23:28:26.480Z,100.00
2022-09-28T23:30:54.645Z,100.00
2022-09-28T23:33:22.922Z,100.00
2022-09-28T23:35:51.183Z,100.00
2022-09-28T23:38:20.514Z,100.00
2022-09-28T23:40:49.244Z,100.00
2022-09-28T23:43:17.291Z,100.00
2022-09-28T23:45:45.577Z,100.00
2022-09-28T23:48:15.029Z,100.00
2022-09-28T23:50:43.467Z,100.00
2022-09-28T23:53:11.936Z,100.00
2022-09-28T23:55:41.895Z,100.00
2022-09-28T23:58:09.986Z,100.00
